< Cyclone 197213 1972 Season Cyclone 197216 >
Cyclone 197215 (EMILY)
General InformationTrack Information on Google Maps || ResourceGoogle EarthGE AnimationAtom FeedGeoJSON
Detalied Best Track (Time Zone = UTC)
Year Month Day Hour Lat. Long. Pressure (hPa) Wind (kt) Class Image Chart
1972 3 27 23 -10.9 157.5 1000 0 0 -- --
1972 3 28 02 -11.2 157.8 999 0 0 -- --
1972 3 28 05 -11.5 158.0 998 0 0 -- --
1972 3 28 08 -11.8 158.2 999 0 0 -- --
1972 3 28 11 -12.0 158.5 999 0 0 -- --
1972 3 28 14 -12.1 158.7 997 0 0 -- --
1972 3 28 17 -12.2 158.8 995 0 0 -- --
1972 3 28 20 -12.3 158.9 992 0 0 -- --
1972 3 28 23 -12.4 159.0 990 0 0 -- --
1972 3 29 02 -12.5 159.1 985 0 0 -- --
1972 3 29 05 -12.8 159.2 980 0 0 -- --
1972 3 29 08 -12.8 159.2 975 0 0 -- --
1972 3 29 11 -12.9 159.2 970 0 0 -- --
1972 3 29 14 -13.0 159.2 965 0 0 -- --
1972 3 29 17 -13.1 159.2 960 0 0 -- --
1972 3 29 20 -13.2 159.2 956 0 0 -- --
1972 3 29 23 -13.4 159.2 953 0 0 -- --
1972 3 30 02 -13.7 159.1 950 0 0 -- --
1972 3 30 05 -14.1 159.0 948 0 0 -- --
1972 3 30 08 -14.5 158.8 946 0 0 -- --
1972 3 30 11 -14.9 158.6 944 0 0 -- --
1972 3 30 14 -15.3 158.5 943 0 0 -- --
1972 3 30 17 -15.6 158.3 942 0 0 -- --
1972 3 30 20 -16.0 158.2 942 0 0 -- --
1972 3 30 23 -16.4 158.0 942 0 0 -- --
1972 3 31 02 -16.7 157.5 943 0 0 -- --
1972 3 31 05 -17.2 157.1 944 0 0 -- --
1972 3 31 08 -17.7 156.6 945 0 0 -- --
1972 3 31 11 -18.2 156.1 947 0 0 -- --
1972 3 31 14 -18.6 155.7 949 0 0 -- --
1972 3 31 17 -19.1 155.2 950 0 0 -- --
1972 3 31 20 -19.6 154.7 952 0 0 -- --
1972 3 31 23 -20.0 154.2 954 0 0 -- --
1972 4 1 02 -20.6 153.8 955 0 0 -- --
1972 4 1 05 -20.9 153.5 957 0 0 -- --
1972 4 1 08 -21.3 153.2 959 0 0 -- --
1972 4 1 11 -21.7 152.8 961 0 0 -- --
1972 4 1 14 -22.0 152.6 964 0 0 -- --
1972 4 1 17 -22.4 152.3 967 0 0 -- --
1972 4 1 20 -22.7 152.0 970 0 0 -- --
1972 4 1 23 -23.2 151.7 974 0 0 -- --
1972 4 2 02 -23.9 151.3 985 0 0 -- --
1972 4 2 05 -24.4 151.1 993 0 0 -- --
1972 4 2 08 -24.7 151.1 999 0 0 -- --
1972 4 2 11 -25.1 151.2 1002 0 0 -- --
1972 4 2 14 -25.2 151.3 1004 0 0 -- --
< Cyclone 197213 1972 Season Cyclone 197216 >

Help